Time;durP1;ratioP1;P1;durP2;ratioP2;P2;SDS_P1;SDS_P2;PMS_P1;PMS_P2;Temp;Humidity;BMP_temperature;BMP_pressure;BME280_temperature;BME280_humidity;BME280_pressure;Samples;Min_cycle;Max_cycle;Signal;HPM_P1;HPM_P2
2023/10/24 00:01:00;;;;;;;10.48;6.10;;;;;;;10.06;96.15;100661.94;7393331;19;19930;-69
2023/10/24 00:03:28;;;;;;;9.05;5.30;;;;;;;10.06;96.11;100656.56;7392269;19;20291;-69
2023/10/24 00:05:57;;;;;;;12.48;6.13;;;;;;;10.05;96.33;100640.59;7389530;19;19963;-68
2023/10/24 00:08:25;;;;;;;9.65;5.68;;;;;;;10.05;96.28;100632.53;7394656;19;19951;-69
2023/10/24 00:11:04;;;;;;;9.63;5.10;;;;;;;10.02;96.22;100633.72;7390296;19;20308;-68
2023/10/24 00:13:33;;;;;;;10.27;5.68;;;;;;;10.02;96.69;100623.78;7393186;19;20373;-69
2023/10/24 00:16:02;;;;;;;11.02;5.97;;;;;;;10.02;96.65;100618.41;7393479;19;19930;-69
2023/10/24 00:18:30;;;;;;;9.45;5.72;;;;;;;10.03;96.89;100611.16;7394164;19;20345;-69
2023/10/24 00:21:00;;;;;;;9.18;5.10;;;;;;;10.03;96.90;100605.78;7391568;19;19985;-69
2023/10/24 00:23:30;;;;;;;11.48;6.30;;;;;;;10.02;96.77;100602.25;7393496;19;19948;-69
2023/10/24 00:25:58;;;;;;;12.23;5.22;;;;;;;10.03;96.75;100603.09;7392226;19;20308;-68
2023/10/24 00:28:29;;;;;;;10.15;6.03;;;;;;;10.03;96.76;100600.41;7393260;19;19923;-68
2023/10/24 00:30:59;;;;;;;9.35;5.70;;;;;;;10.02;97.01;100596.88;7393453;19;19951;-69
2023/10/24 00:33:28;;;;;;;11.07;5.65;;;;;;;10.05;96.84;100597.53;7394090;19;20330;-68
2023/10/24 00:35:57;;;;;;;9.00;5.40;;;;;;;10.07;97.31;100595.50;7389890;19;20664;-69
2023/10/24 00:38:25;;;;;;;11.90;6.10;;;;;;;10.08;96.99;100605.25;7394373;19;19910;-68
2023/10/24 00:40:55;;;;;;;13.75;5.90;;;;;;;10.09;97.26;100598.84;7395023;19;19923;-68
2023/10/24 00:43:23;;;;;;;9.85;5.57;;;;;;;10.10;97.36;100604.03;7396139;19;19977;-68
2023/10/24 00:45:54;;;;;;;9.70;5.80;;;;;;;10.11;97.21;100599.50;7395877;19;19960;-68
2023/10/24 00:48:23;;;;;;;9.95;5.22;;;;;;;10.12;97.04;100602.00;7396750;19;19926;-69
2023/10/24 00:50:52;;;;;;;11.43;5.75;;;;;;;10.13;97.48;100592.09;7396369;19;19915;-68
2023/10/24 00:53:20;;;;;;;13.02;5.80;;;;;;;10.15;97.15;100590.03;7397364;19;20354;-68
2023/10/24 00:55:49;;;;;;;8.32;5.68;;;;;;;10.15;97.25;100592.72;7390743;19;19951;-68
2023/10/24 00:58:18;;;;;;;7.90;4.97;;;;;;;10.16;97.58;100586.38;7396041;19;19922;-69
2023/10/24 01:00:48;;;;;;;8.75;5.47;;;;;;;10.17;97.91;100591.59;7396318;19;20344;-69
2023/10/24 01:03:19;;;;;;;9.55;5.25;;;;;;;10.18;98.07;100578.97;7395856;19;19922;-68
2023/10/24 01:05:49;;;;;;;9.90;6.28;;;;;;;10.18;98.38;100573.56;7393265;19;19954;-69
2023/10/24 01:08:18;;;;;;;10.52;6.00;;;;;;;10.16;98.33;100565.66;7394126;19;19933;-69
2023/10/24 01:10:47;;;;;;;9.68;5.15;;;;;;;10.17;98.64;100563.81;7396936;19;19926;-68
2023/10/24 01:13:15;;;;;;;11.18;5.88;;;;;;;10.18;99.05;100560.94;7397879;19;19919;-69
2023/10/24 01:15:44;;;;;;;12.63;6.13;;;;;;;10.18;98.95;100560.13;7396951;19;19952;-69
2023/10/24 01:18:12;;;;;;;10.48;6.07;;;;;;;10.18;99.34;100558.22;7393509;19;20301;-68
2023/10/24 01:20:44;;;;;;;12.40;6.15;;;;;;;10.20;99.00;100560.75;7396055;19;19948;-68
2023/10/24 01:23:15;;;;;;;11.23;5.90;;;;;;;10.20;99.32;100566.97;7398203;19;19936;-68
2023/10/24 01:25:44;;;;;;;11.38;5.28;;;;;;;10.19;99.50;100559.91;7396812;19;19921;-68
2023/10/24 01:28:13;;;;;;;9.25;5.68;;;;;;;10.21;100.00;100565.13;7395604;19;19947;-68
2023/10/24 01:30:42;;;;;;;9.20;5.38;;;;;;;10.22;99.88;100550.66;7392288;19;19927;-68
2023/10/24 01:33:11;;;;;;;8.00;5.60;;;;;;;10.22;100.00;100550.66;7394984;19;19941;-68
2023/10/24 01:35:39;;;;;;;9.02;6.05;;;;;;;10.24;100.00;100548.59;7391245;19;19922;-68
2023/10/24 01:38:08;;;;;;;10.98;5.70;;;;;;;10.21;100.00;100538.22;7395789;19;19927;-68
2023/10/24 01:40:39;;;;;;;10.05;6.03;;;;;;;10.23;100.00;100536.16;7397318;19;19930;-68
2023/10/24 01:43:08;;;;;;;;;;;;;;;10.13;100.00;100527.50;7399262;19;19974;-67
2023/10/24 01:45:37;;;;;;;9.27;5.78;;;;;;;10.19;100.00;100521.38;7399056;19;19934;-68
2023/10/24 01:48:06;;;;;;;12.20;6.95;;;;;;;10.19;100.00;100516.84;7396596;19;19918;-68
2023/10/24 01:50:35;;;;;;;10.35;6.72;;;;;;;10.19;100.00;100516.00;7395275;19;19921;-68
2023/10/24 01:53:03;;;;;;;10.38;6.05;;;;;;;10.19;100.00;100518.69;7392354;19;19914;-68
2023/10/24 01:55:32;;;;;;;9.90;6.03;;;;;;;10.19;100.00;100508.78;7394710;19;19952;-68
2023/10/24 01:58:03;;;;;;;12.10;7.13;;;;;;;10.20;100.00;100496.16;7397393;19;19957;-68
2023/10/24 02:00:31;;;;;;;12.85;6.15;;;;;;;10.20;100.00;100494.31;7397352;19;19918;-68
2023/10/24 02:03:00;;;;;;;10.98;6.63;;;;;;;10.21;100.00;100484.38;7394610;19;19946;-68
2023/10/24 02:05:29;;;;;;;15.23;6.82;;;;;;;10.20;100.00;100488.91;7394983;19;20345;-68
2023/10/24 02:07:57;;;;;;;11.90;6.88;;;;;;;10.21;100.00;100495.13;7397284;19;19958;-68
2023/10/24 02:10:26;;;;;;;9.00;6.10;;;;;;;10.20;100.00;100485.38;7395735;19;19926;-68
2023/10/24 02:12:54;;;;;;;11.43;6.57;;;;;;;10.19;100.00;100479.16;7395269;19;20250;-68
2023/10/24 02:15:26;;;;;;;11.45;6.38;;;;;;;10.19;100.00;100471.09;7397506;19;19930;-68
2023/10/24 02:17:54;;;;;;;12.57;6.90;;;;;;;10.20;100.00;100464.69;7395282;19;19965;-68
2023/10/24 02:20:23;;;;;;;10.52;6.10;;;;;;;10.19;100.00;100462.16;7394290;19;19943;-68
2023/10/24 02:22:51;;;;;;;10.85;6.72;;;;;;;10.20;100.00;100464.69;7394051;19;19949;-68
2023/10/24 02:25:20;;;;;;;10.82;6.55;;;;;;;10.20;100.00;100456.63;7395821;19;19952;-68
2023/10/24 02:27:48;;;;;;;11.85;6.07;;;;;;;10.20;100.00;100459.31;7392754;19;20564;-68
2023/10/24 02:30:17;;;;;;;10.02;6.30;;;;;;;10.21;100.00;100454.75;7395557;19;19943;-68
2023/10/24 02:32:49;;;;;;;12.40;6.53;;;;;;;10.21;100.00;100454.75;7394144;19;19975;-68
2023/10/24 02:35:18;;;;;;;13.15;6.15;;;;;;;10.22;100.00;100440.28;7396349;19;19970;-68
2023/10/24 02:37:46;;;;;;;9.40;6.30;;;;;;;10.22;100.00;100441.13;7390872;19;19926;-68
2023/10/24 02:40:15;;;;;;;12.35;7.10;;;;;;;10.23;100.00;100436.56;7393859;19;19937;-68
2023/10/24 02:42:43;;;;;;;10.63;6.57;;;;;;;10.24;100.00;100433.69;7396843;19;19925;-68
2023/10/24 02:45:13;;;;;;;12.48;6.93;;;;;;;10.26;100.00;100431.66;7394180;19;19926;-68
2023/10/24 02:47:41;;;;;;;9.57;5.90;;;;;;;10.26;100.00;100430.81;7393526;19;19922;-68
2023/10/24 02:50:13;;;;;;;13.07;6.78;;;;;;;10.27;100.00;100427.91;7393824;19;19919;-68
2023/10/24 02:52:41;;;;;;;10.57;6.65;;;;;;;10.27;100.00;100421.69;7393803;19;19947;-68
2023/10/24 02:55:11;;;;;;;12.15;6.22;;;;;;;10.28;100.00;100420.69;7394603;19;19919;-68
2023/10/24 02:57:40;;;;;;;10.15;6.05;;;;;;;10.30;100.00;100427.56;7394438;19;19922;-68
2023/10/24 03:00:10;;;;;;;11.27;6.32;;;;;;;10.33;100.00;100429.03;7394341;19;19927;-68
2023/10/24 03:02:38;;;;;;;10.30;6.05;;;;;;;10.34;100.00;100423.47;7397692;19;19915;-68
2023/10/24 03:05:08;;;;;;;9.15;5.82;;;;;;;10.36;100.00;100416.03;7391695;19;19927;-68
2023/10/24 03:07:39;;;;;;;10.85;6.47;;;;;;;10.37;100.00;100406.94;7389947;19;19930;-68
2023/10/24 03:10:09;;;;;;;9.32;5.93;;;;;;;10.38;100.00;100416.69;7394094;19;19922;-68
2023/10/24 03:12:37;;;;;;;9.85;5.80;;;;;;;10.38;100.00;100407.78;7394205;19;19922;-68
2023/10/24 03:15:07;;;;;;;9.52;5.25;;;;;;;10.39;100.00;100398.69;7395799;19;19944;-68
2023/10/24 03:17:37;;;;;;;11.50;5.35;;;;;;;10.41;100.00;100399.31;7394047;19;19922;-68
2023/10/24 03:20:06;;;;;;;9.45;5.57;;;;;;;10.42;100.00;100401.00;7391499;19;19922;-68
2023/10/24 03:22:35;;;;;;;10.35;5.45;;;;;;;10.43;100.00;100383.81;7396097;19;19970;-68
2023/10/24 03:25:06;;;;;;;8.18;5.18;;;;;;;10.43;100.00;100384.66;7395997;19;19915;-68
2023/10/24 03:27:35;;;;;;;10.43;5.13;;;;;;;10.44;100.00;100380.94;7394086;19;20392;-67
2023/10/24 03:30:03;;;;;;;8.63;5.63;;;;;;;10.46;100.00;100378.06;7396092;19;19955;-67
2023/10/24 03:32:32;;;;;;;8.50;5.70;;;;;;;10.46;100.00;100384.28;7395595;19;19933;-68
2023/10/24 03:35:01;;;;;;;8.90;5.35;;;;;;;10.48;100.00;100385.97;7394422;19;20434;-68
2023/10/24 03:37:29;;;;;;;8.60;5.40;;;;;;;10.48;100.00;100372.50;7391528;19;19934;-69
2023/10/24 03:39:58;;;;;;;8.57;5.40;;;;;;;10.50;100.00;100381.19;7395543;19;20364;-68
2023/10/24 03:42:29;;;;;;;11.57;5.57;;;;;;;10.52;100.00;100368.41;7392619;19;19918;-68
2023/10/24 03:44:57;;;;;;;8.73;5.70;;;;;;;10.51;100.00;100366.72;7395759;19;19926;-68
2023/10/24 03:47:27;;;;;;;8.70;5.65;;;;;;;10.52;100.00;100368.41;7392778;19;19926;-68
2023/10/24 03:49:55;;;;;;;8.02;5.95;;;;;;;10.53;100.00;100372.78;7395730;19;19926;-68
2023/10/24 03:52:24;;;;;;;9.35;5.40;;;;;;;10.52;100.00;100371.09;7391197;19;19923;-68
2023/10/24 03:54:52;;;;;;;9.48;5.97;;;;;;;10.55;100.00;100381.47;7394719;19;19947;-68
2023/10/24 03:57:21;;;;;;;8.38;5.32;;;;;;;10.55;100.00;100373.41;7392785;19;19926;-68
2023/10/24 03:59:52;;;;;;;10.27;5.72;;;;;;;10.54;100.00;100374.41;7395863;19;19944;-68
2023/10/24 04:02:20;;;;;;;8.43;5.78;;;;;;;10.54;100.00;100369.88;7388426;19;19922;-68
2023/10/24 04:04:49;;;;;;;10.80;6.63;;;;;;;10.55;100.00;100368.00;7389123;19;19923;-69
2023/10/24 04:07:19;;;;;;;8.93;5.63;;;;;;;10.54;100.00;100366.34;7393047;19;20345;-68
2023/10/24 04:09:48;;;;;;;10.02;5.82;;;;;;;10.53;100.00;100376.28;7391300;19;19918;-68
2023/10/24 04:12:16;;;;;;;13.48;6.78;;;;;;;10.54;100.00;100364.47;7392935;19;19930;-68
2023/10/24 04:15:03;;;;;;;9.45;6.30;;;;;;;10.55;100.00;100366.16;7388172;19;19926;-68
2023/10/24 04:17:32;;;;;;;10.85;6.72;;;;;;;10.56;100.00;100361.59;7391558;19;20350;-69
2023/10/24 04:20:00;;;;;;;10.68;6.63;;;;;;;10.55;100.00;100358.06;7392878;19;19926;-68
2023/10/24 04:22:29;;;;;;;9.65;6.32;;;;;;;10.57;100.00;100368.66;7394429;19;20254;-69
2023/10/24 04:24:57;;;;;;;11.32;6.90;;;;;;;10.56;100.00;100362.44;7392234;19;19926;-68
2023/10/24 04:27:26;;;;;;;11.70;7.18;;;;;;;10.56;100.00;100362.44;7387965;19;20266;-68
2023/10/24 04:29:54;;;;;;;10.40;7.15;;;;;;;10.57;100.00;100357.91;7389896;19;19948;-68
2023/10/24 04:32:25;;;;;;;8.82;5.90;;;;;;;10.58;100.00;100355.00;7393532;19;19947;-68
2023/10/24 04:34:54;;;;;;;12.35;6.80;;;;;;;10.59;100.00;100355.84;7392226;19;20285;-68
2023/10/24 04:37:23;;;;;;;9.98;6.15;;;;;;;10.59;100.00;100356.66;7390188;19;19926;-68
2023/10/24 04:39:51;;;;;;;10.10;6.65;;;;;;;10.60;100.00;100350.25;7391352;19;19947;-68
2023/10/24 04:42:20;;;;;;;9.68;6.25;;;;;;;10.61;100.00;100343.88;7392507;19;19948;-68
2023/10/24 04:44:48;;;;;;;10.90;6.70;;;;;;;10.62;100.00;100348.19;7391545;19;20273;-68
2023/10/24 04:47:17;;;;;;;10.98;6.53;;;;;;;10.64;100.00;100339.94;7388921;19;19943;-68
2023/10/24 04:49:49;;;;;;;10.27;6.60;;;;;;;10.64;100.00;100345.31;7388974;19;19915;-68
2023/10/24 04:52:17;;;;;;;10.02;6.43;;;;;;;10.67;100.00;100342.25;7393987;19;19923;-68
2023/10/24 04:54:46;;;;;;;9.88;6.07;;;;;;;10.65;100.00;100338.91;7391056;19;20294;-68
2023/10/24 04:57:15;;;;;;;12.77;7.15;;;;;;;10.66;100.00;100340.56;7390839;19;20314;-68
2023/10/24 04:59:43;;;;;;;10.98;6.43;;;;;;;10.66;100.00;100346.78;7393449;19;19918;-68
2023/10/24 05:02:12;;;;;;;10.00;6.57;;;;;;;10.67;100.00;100347.63;7386065;19;20385;-68
2023/10/24 05:04:40;;;;;;;10.95;7.28;;;;;;;10.69;100.00;100351.81;7390384;19;19922;-68
2023/10/24 05:07:11;;;;;;;10.45;6.45;;;;;;;10.70;100.00;100345.38;7385864;19;19944;-68
2023/10/24 05:09:40;;;;;;;9.57;6.38;;;;;;;10.70;100.00;100342.69;7388610;19;19923;-69
2023/10/24 05:12:09;;;;;;;11.13;6.50;;;;;;;10.72;100.00;100342.50;7389761;19;19930;-68
2023/10/24 05:14:37;;;;;;;9.10;5.95;;;;;;;10.71;100.00;100347.06;7392366;19;19923;-68
2023/10/24 05:17:07;;;;;;;10.52;6.65;;;;;;;10.72;100.00;100340.66;7389524;19;19926;-68
2023/10/24 05:19:35;;;;;;;9.68;5.97;;;;;;;10.73;100.00;100326.16;7391050;19;19978;-68
2023/10/24 05:22:04;;;;;;;9.60;6.45;;;;;;;10.75;100.00;100329.50;7391491;19;19918;-68
2023/10/24 05:24:35;;;;;;;8.15;4.90;;;;;;;10.78;100.00;100322.91;7389383;19;19918;-68
2023/10/24 05:27:04;;;;;;;8.68;6.35;;;;;;;10.78;100.00;100318.34;7390706;19;19944;-68
2023/10/24 05:29:34;;;;;;;7.13;5.22;;;;;;;10.80;100.00;100308.19;7393392;19;19922;-68
2023/10/24 05:32:03;;;;;;;10.18;5.97;;;;;;;10.81;100.00;100312.56;7398342;19;20571;-68
2023/10/24 05:34:31;;;;;;;10.52;6.00;;;;;;;10.82;100.00;100302.63;7395054;19;20057;-68
2023/10/24 05:37:00;;;;;;;9.30;5.90;;;;;;;10.81;100.00;100296.41;7396564;19;19922;-68
2023/10/24 05:39:30;;;;;;;11.52;5.85;;;;;;;10.82;100.00;100294.53;7390288;19;19948;-68
2023/10/24 05:42:01;;;;;;;8.35;5.75;;;;;;;10.82;100.00;100291.84;7396464;19;19978;-68
2023/10/24 05:44:29;;;;;;;8.07;5.57;;;;;;;10.82;100.00;100292.69;7396828;19;19947;-68
2023/10/24 05:46:58;;;;;;;6.97;5.38;;;;;;;10.82;100.00;100281.91;7396562;19;19922;-68
2023/10/24 05:49:27;;;;;;;8.52;5.40;;;;;;;10.81;100.00;100285.63;7396279;19;20537;-68
2023/10/24 05:51:56;;;;;;;9.57;6.20;;;;;;;10.82;100.00;100291.84;7395172;19;20352;-68
2023/10/24 05:54:25;;;;;;;10.60;5.38;;;;;;;10.81;100.00;100285.63;7393433;19;19951;-68
2023/10/24 05:56:53;;;;;;;8.02;5.50;;;;;;;10.83;100.00;100278.16;7393685;19;20327;-68
2023/10/24 05:59:26;;;;;;;7.22;5.50;;;;;;;10.84;100.00;100279.84;7386154;19;19986;-68
2023/10/24 06:01:54;;;;;;;8.30;6.32;;;;;;;10.82;100.00;100275.69;7395715;19;19926;-68
2023/10/24 06:04:23;;;;;;;8.48;5.65;;;;;;;10.81;100.00;100271.31;7395527;19;19935;-67
2023/10/24 06:06:51;;;;;;;10.18;5.57;;;;;;;10.79;100.00;100276.88;7394402;19;19944;-68
2023/10/24 06:09:20;;;;;;;8.13;5.47;;;;;;;10.76;100.00;100279.97;7396411;19;19922;-68
2023/10/24 06:11:49;;;;;;;7.63;5.28;;;;;;;10.75;100.00;100283.69;7397526;19;19934;-68
2023/10/24 06:14:17;;;;;;;9.45;5.88;;;;;;;10.74;100.00;100283.91;7397145;19;19939;-68
2023/10/24 06:16:48;;;;;;;8.80;5.40;;;;;;;10.73;100.00;100287.63;7397145;19;19919;-68
2023/10/24 06:19:17;;;;;;;8.68;5.70;;;;;;;10.72;100.00;100284.09;7392483;19;19936;-68
2023/10/24 06:21:45;;;;;;;7.43;5.15;;;;;;;10.72;100.00;100285.94;7383901;19;19927;-68
2023/10/24 06:24:14;;;;;;;8.23;5.55;;;;;;;10.72;100.00;100294.03;7387000;19;19918;-68
2023/10/24 06:26:42;;;;;;;8.05;5.47;;;;;;;10.70;100.00;100288.81;7384082;19;19926;-68
2023/10/24 06:29:11;;;;;;;8.65;4.93;;;;;;;10.71;100.00;100292.34;7387781;19;19922;-68
2023/10/24 06:31:39;;;;;;;8.65;5.20;;;;;;;10.71;100.00;100297.72;7395594;19;19930;-68
2023/10/24 06:34:11;;;;;;;8.48;5.10;;;;;;;10.71;100.00;100295.03;7393131;19;19961;-68
2023/10/24 06:36:39;;;;;;;7.78;5.07;;;;;;;10.69;100.00;100300.63;7397204;19;20340;-68
2023/10/24 06:39:08;;;;;;;6.80;4.65;;;;;;;10.69;100.00;100295.25;7391707;19;19930;-68
2023/10/24 06:41:36;;;;;;;9.70;5.95;;;;;;;10.69;100.00;100299.81;7395443;19;19930;-68
2023/10/24 06:44:05;;;;;;;8.60;5.20;;;;;;;10.70;100.00;100304.97;7396384;19;19922;-68
2023/10/24 06:46:33;;;;;;;8.82;4.82;;;;;;;10.70;100.00;100304.97;7396837;19;19923;-68
2023/10/24 06:49:02;;;;;;;5.82;4.43;;;;;;;10.72;100.00;100304.78;7391847;19;20381;-68
2023/10/24 06:51:34;;;;;;;7.47;5.40;;;;;;;10.72;100.00;100308.31;7395658;19;19929;-68
2023/10/24 06:54:03;;;;;;;8.20;5.22;;;;;;;10.72;100.00;100308.31;7393461;19;19926;-67
2023/10/24 06:56:32;;;;;;;8.80;5.60;;;;;;;10.72;100.00;100302.09;7395957;19;20054;-67
2023/10/24 06:59:00;;;;;;;6.60;4.50;;;;;;;10.73;100.00;100304.63;7390623;19;19919;-68
2023/10/24 07:01:29;;;;;;;9.85;5.78;;;;;;;10.73;100.00;100299.22;7393900;19;19930;-68
2023/10/24 07:03:57;;;;;;;6.97;4.82;;;;;;;10.75;100.00;100296.31;7393521;19;20556;-68
2023/10/24 07:06:26;;;;;;;7.53;5.03;;;;;;;10.78;100.00;100295.97;7395522;19;19926;-68
2023/10/24 07:08:57;;;;;;;6.20;4.75;;;;;;;10.78;100.00;100291.41;7393218;19;19944;-68
2023/10/24 07:11:25;;;;;;;7.88;5.32;;;;;;;10.78;100.00;100296.78;7393199;19;19952;-68
2023/10/24 07:13:54;;;;;;;9.25;5.38;;;;;;;10.79;100.00;100297.59;7395289;19;20324;-67
2023/10/24 07:16:22;;;;;;;9.13;5.72;;;;;;;10.78;100.00;100291.41;7393203;19;19927;-68
2023/10/24 07:18:51;;;;;;;7.35;5.10;;;;;;;10.78;100.00;100288.72;7394241;19;19926;-68
2023/10/24 07:21:20;;;;;;;8.00;5.32;;;;;;;10.79;100.00;100290.34;7396161;19;20536;-68
2023/10/24 07:23:48;;;;;;;7.18;4.75;;;;;;;10.79;100.00;100293.06;7394437;19;19918;-68
2023/10/24 07:26:19;;;;;;;7.38;4.88;;;;;;;10.78;100.00;100294.09;7394622;19;19951;-68
2023/10/24 07:28:48;;;;;;;8.18;5.50;;;;;;;10.78;100.00;100295.97;7390361;19;21171;-68
2023/10/24 07:31:16;;;;;;;8.52;4.82;;;;;;;10.80;100.00;100294.72;7392702;19;19951;-67
2023/10/24 07:33:46;;;;;;;6.90;5.03;;;;;;;10.83;100.00;100301.56;7392165;19;22802;-68
2023/10/24 07:36:14;;;;;;;7.93;4.90;;;;;;;10.84;100.00;100296.00;7388450;19;19918;-67
2023/10/24 07:38:43;;;;;;;5.22;3.97;;;;;;;10.88;100.00;100286.50;7393485;19;19914;-68
2023/10/24 07:41:12;;;;;;;7.40;4.20;;;;;;;10.91;100.00;100286.13;7395240;19;20395;-68
2023/10/24 07:43:44;;;;;;;5.88;3.85;;;;;;;10.96;100.00;100288.22;7395600;19;19964;-68
2023/10/24 07:46:13;;;;;;;6.35;4.13;;;;;;;10.98;100.00;100291.59;7394255;19;19922;-67
2023/10/24 07:48:42;;;;;;;5.53;4.10;;;;;;;11.02;100.00;100289.31;7392681;19;19947;-68
2023/10/24 07:51:11;;;;;;;7.50;4.50;;;;;;;11.06;100.00;100296.00;7392809;19;19957;-68
2023/10/24 07:53:39;;;;;;;6.43;3.75;;;;;;;11.10;100.00;100298.09;7391050;19;19930;-67
2023/10/24 07:56:09;;;;;;;5.65;3.90;;;;;;;11.10;100.00;100305.34;7393368;19;19923;-68
2023/10/24 07:58:37;;;;;;;6.18;3.90;;;;;;;11.12;100.00;100301.47;7394857;19;19936;-67
2023/10/24 08:01:09;;;;;;;5.75;4.07;;;;;;;11.16;100.00;100301.91;7393100;19;19928;-67
2023/10/24 08:03:38;;;;;;;5.22;4.07;;;;;;;11.18;100.00;100300.66;7392786;19;20423;-67
2023/10/24 08:06:07;;;;;;;7.28;4.38;;;;;;;11.22;100.00;100299.25;7388108;19;19918;-67
2023/10/24 08:08:35;;;;;;;7.10;4.22;;;;;;;11.25;100.00;100292.63;7392147;19;20287;-67
2023/10/24 08:11:05;;;;;;;7.05;4.07;;;;;;;11.28;100.00;100297.63;7394645;19;20269;-68
2023/10/24 08:13:33;;;;;;;7.10;3.70;;;;;;;11.30;100.00;100292.91;7393626;19;19974;-67
2023/10/24 08:16:02;;;;;;;5.40;3.80;;;;;;;11.31;100.00;100287.28;7392417;19;19923;-68
2023/10/24 08:18:34;;;;;;;6.55;4.40;;;;;;;11.34;100.00;100292.31;7392005;19;19922;-68
2023/10/24 08:21:03;;;;;;;7.43;4.55;;;;;;;11.37;100.00;100288.38;7390876;19;19929;-67
2023/10/24 08:23:32;;;;;;;6.13;4.50;;;;;;;11.39;100.00;100283.59;7394809;19;19933;-67
2023/10/24 08:26:00;;;;;;;6.22;4.32;;;;;;;11.40;100.00;100269.09;7390729;19;20624;-67
2023/10/24 08:28:29;;;;;;;7.10;4.45;;;;;;;11.43;100.00;100278.66;7393510;19;19926;-67
2023/10/24 08:30:58;;;;;;;7.28;4.47;;;;;;;11.43;100.00;100281.38;7389956;19;19929;-67
2023/10/24 08:33:28;;;;;;;7.03;3.95;;;;;;;11.44;100.00;100272.22;7394375;19;19939;-67
2023/10/24 08:35:59;;;;;;;5.93;3.60;;;;;;;11.46;100.00;100278.28;7390330;19;19927;-67
2023/10/24 08:38:28;;;;;;;5.70;4.30;;;;;;;11.44;100.00;100275.75;7391730;19;19918;-67
2023/10/24 08:40:56;;;;;;;7.13;4.10;;;;;;;11.45;100.00;100288.22;7392789;19;19996;-67
2023/10/24 08:43:26;;;;;;;9.40;3.97;;;;;;;11.45;100.00;100288.22;7392225;19;19922;-67
2023/10/24 08:45:55;;;;;;;6.15;3.63;;;;;;;11.44;100.00;100281.16;7392936;19;19965;-67
2023/10/24 08:48:26;;;;;;;5.60;3.92;;;;;;;11.45;100.00;100288.22;7392771;19;19918;-67
2023/10/24 08:50:55;;;;;;;5.75;3.75;;;;;;;11.46;100.00;100289.06;7390698;19;19939;-67
2023/10/24 08:53:27;;;;;;;6.28;3.75;;;;;;;11.46;100.00;100289.91;7393003;19;19989;-67
2023/10/24 08:55:57;;;;;;;;;;;;;;;11.36;100.00;100292.94;7395836;19;19947;-68
2023/10/24 08:58:27;;;;;;;7.93;4.70;;;;;;;11.45;100.00;100284.69;7392228;19;20341;-67
2023/10/24 09:00:56;;;;;;;5.10;3.60;;;;;;;11.48;100.00;100284.28;7393535;19;19915;-67
2023/10/24 09:03:26;;;;;;;5.50;3.65;;;;;;;11.48;100.00;100285.13;7392492;19;19926;-67
2023/10/24 09:05:55;;;;;;;8.18;4.22;;;;;;;11.47;100.00;100270.00;7393476;19;19926;-66
2023/10/24 09:08:27;;;;;;;5.95;3.75;;;;;;;11.45;100.00;100274.72;7395410;19;19918;-66
2023/10/24 09:10:56;;;;;;;6.75;3.95;;;;;;;11.45;100.00;100274.72;7397607;19;19968;-67
2023/10/24 09:13:26;;;;;;;5.85;4.32;;;;;;;11.46;100.00;100276.41;7396219;19;19982;-67
2023/10/24 09:16:08;;;;;;;5.88;4.00;;;;;;;11.43;100.00;100289.47;7396372;19;20334;-66
2023/10/24 09:18:39;;;;;;;6.43;4.03;;;;;;;11.46;100.00;100286.34;7397180;19;19926;-66
2023/10/24 09:21:09;;;;;;;6.90;3.97;;;;;;;11.45;100.00;100298.16;7397401;19;19922;-68
2023/10/24 09:23:38;;;;;;;5.78;4.32;;;;;;;11.42;100.00;100295.88;7398044;19;19922;-68
2023/10/24 09:26:08;;;;;;;9.43;4.38;;;;;;;11.40;100.00;100301.47;7396805;19;19931;-68
2023/10/24 09:28:37;;;;;;;9.07;4.60;;;;;;;11.39;100.00;100297.91;7396010;19;19922;-68
2023/10/24 09:31:07;;;;;;;8.13;4.68;;;;;;;11.39;100.00;100300.63;7395666;19;19947;-68
2023/10/24 09:33:36;;;;;;;8.50;4.45;;;;;;;11.40;100.00;100293.38;7397260;19;20310;-68
2023/10/24 09:36:05;;;;;;;6.70;4.57;;;;;;;11.48;100.00;100290.50;7396412;19;20341;-68
2023/10/24 09:38:34;;;;;;;5.93;4.20;;;;;;;11.60;100.00;100280.88;7397365;19;19944;-68
2023/10/24 09:41:05;;;;;;;7.13;4.07;;;;;;;11.69;99.41;100282.34;7396995;19;19919;-68
2023/10/24 09:43:36;;;;;;;6.80;4.85;;;;;;;11.75;98.98;100278.06;7395196;19;19922;-68
2023/10/24 09:46:07;;;;;;;9.18;4.35;;;;;;;11.80;99.21;100283.69;7386816;19;20365;-68
2023/10/24 09:48:36;;;;;;;6.75;4.30;;;;;;;11.84;98.82;100282.28;7392122;19;19919;-68
2023/10/24 09:51:06;;;;;;;8.25;4.30;;;;;;;11.87;98.73;100273.75;7390163;19;19927;-67
2023/10/24 09:53:35;;;;;;;7.35;4.40;;;;;;;11.93;98.45;100269.44;7376537;19;19922;-68
2023/10/24 09:56:07;;;;;;;6.47;3.97;;;;;;;11.97;97.57;100273.41;7396560;19;19952;-69
2023/10/24 09:58:41;;;;;;;7.13;4.25;;;;;;;11.98;97.33;100281.31;7397146;19;19922;-67
2023/10/24 10:01:10;;;;;;;6.55;4.43;;;;;;;11.97;97.33;100282.34;7395414;19;19926;-67
2023/10/24 10:03:39;;;;;;;6.82;4.40;;;;;;;11.96;97.28;100277.13;7388831;19;19966;-68
2023/10/24 10:06:13;;;;;;;6.50;3.88;;;;;;;11.92;97.12;100283.97;7392029;19;19918;-68
2023/10/24 10:08:43;;;;;;;6.13;4.05;;;;;;;11.90;97.43;100275.25;7390103;19;19918;-68
2023/10/24 10:11:15;;;;;;;6.75;4.13;;;;;;;11.86;97.41;100276.69;7395973;19;19935;-70
2023/10/24 10:13:52;;;;;;;6.90;4.35;;;;;;;11.84;97.31;100282.28;7393732;19;20361;-68
2023/10/24 10:16:41;;;;;;;5.93;4.22;;;;;;;11.83;97.19;100275.19;7391417;19;19951;-68
2023/10/24 10:19:37;;;;;;;6.40;4.55;;;;;;;11.85;96.47;100277.72;7395926;19;20422;-67
2023/10/24 10:22:37;;;;;;;6.93;4.03;;;;;;;11.83;95.87;100281.44;7390118;19;19931;-67
2023/10/24 10:25:35;;;;;;;5.55;3.90;;;;;;;11.88;95.94;100280.00;7381484;19;19922;-70
2023/10/24 10:28:18;;;;;;;6.55;4.40;;;;;;;11.91;95.57;100282.31;7387573;19;19923;-68
2023/10/24 10:30:59;;;;;;;5.45;4.03;;;;;;;11.91;96.31;100279.63;7391477;19;20056;-68
2023/10/24 10:33:28;;;;;;;6.43;3.72;;;;;;;11.90;96.18;100280.66;7394095;19;19947;-67
2023/10/24 10:36:01;;;;;;;6.13;4.25;;;;;;;11.89;95.83;100271.72;7385430;19;19926;-67
2023/10/24 10:38:38;;;;;;;5.05;4.22;;;;;;;11.87;94.93;100264.84;7391795;19;19915;-70
2023/10/24 10:41:44;;;;;;;6.22;4.10;;;;;;;11.86;95.68;100266.72;7396427;19;19948;-68
2023/10/24 10:44:44;;;;;;;4.93;3.58;;;;;;;11.88;95.47;100272.75;7393873;19;19923;-68
2023/10/24 10:47:18;;;;;;;6.75;3.72;;;;;;;11.87;96.47;100271.06;7393484;19;19926;-68
2023/10/24 10:49:50;;;;;;;6.30;3.60;;;;;;;11.83;95.95;100283.28;7395392;19;19911;-68
2023/10/24 10:52:45;;;;;;;4.95;3.95;;;;;;;11.75;96.26;100278.06;7395927;19;19922;-69
2023/10/24 10:55:22;;;;;;;;;;;;;;;11.66;96.31;100277.34;7399180;19;19935;-68
2023/10/24 10:58:05;;;;;;;5.65;3.42;;;;;;;11.72;96.75;100268.50;7394826;19;19926;-68
2023/10/24 11:00:50;;;;;;;5.15;3.75;;;;;;;11.74;97.06;100269.13;7393393;19;19935;-67
2023/10/24 11:03:40;;;;;;;7.10;4.35;;;;;;;11.74;96.94;100266.44;7387247;19;19922;-68
2023/10/24 11:06:14;;;;;;;5.28;3.47;;;;;;;11.77;96.86;100254.44;7392780;19;19923;-68
2023/10/24 11:08:44;;;;;;;6.20;4.15;;;;;;;11.79;96.55;100258.56;7390851;19;20270;-68
2023/10/24 11:11:13;;;;;;;6.35;3.90;;;;;;;11.80;97.03;100249.47;7394797;19;19926;-68
2023/10/24 11:13:43;;;;;;;6.85;4.10;;;;;;;11.80;96.58;100254.03;7393054;19;19963;-67
2023/10/24 11:16:16;;;;;;;4.78;3.55;;;;;;;11.79;96.34;100258.56;7393950;19;20386;-67
2023/10/24 11:18:45;;;;;;;5.63;3.90;;;;;;;11.79;96.72;100253.19;7390548;19;19930;-68
2023/10/24 11:21:14;;;;;;;7.20;3.63;;;;;;;11.79;96.86;100255.88;7385686;19;19927;-68
2023/10/24 11:23:44;;;;;;;6.13;3.67;;;;;;;11.77;96.66;100252.56;7388964;19;19943;-68
2023/10/24 11:26:13;;;;;;;6.25;3.65;;;;;;;11.77;97.01;100249.88;7392834;19;20366;-68
2023/10/24 11:28:43;;;;;;;7.20;4.57;;;;;;;11.79;96.95;100249.66;7388797;19;19926;-68
2023/10/24 11:31:24;;;;;;;6.47;4.13;;;;;;;11.78;96.53;100253.38;7393101;19;19929;-68